Boulder City, NV (89005)

11:11 AM PDT on October 24, 2014 (GMT -0700)
Boulder City | Change Station
CLOSE
Current Station
Airport
Location: Boulder City,
Elevation: 671 m
Nearby Weather Stations

Elev 671 m 35.95 °N, 114.86 °W | Updated 16 minutes ago

Clear
Clear
26 °C
Feels Like 26 °C
N
6
Wind Variable Wind from NE

Today
High -- | Low -- °C
--% Chance of Precip.
Yesterday
High -- | Low -- °C
Precip. -- mm
6:54 AM 5:52 PM
New Moon, 1% visible
Pressure 1020 hPa
Visibility 16.1 kilometers
Clouds Clear
Dew Point 5 °C
Humidity 26%
Rainfall 0.0 mm
Snow Depth Not available.
UV 5 out of 12
Pollen 4.40 out of 12
Ozone Good
PM2.5 Moderate
Flu Activity No Activity
METAR KBVU 241755Z AUTO 05003KT 10SM CLR 26/05 A3013 RMK AO2

More Conditions Fewer Conditions

Pressure 1020 hPa
Visibility 16.1 kilometers
Clouds Clear
Dew Point 5 °C
Humidity 26%
Rainfall 0.0 mm
Snow Depth Not available.
UV 5 out of 12
Pollen 4.40 out of 12
Ozone Good
PM2.5 Moderate
Flu Activity No Activity
METAR KBVU 241755Z AUTO 05003KT 10SM CLR 26/05 A3013 RMK AO2

More Conditions Fewer Conditions

10-Day Weather Forecast

Almanac

Astronomy

Oct. 24, 2014 Rise Set
Actual Time 6:54 AM PDT 5:52 PM PDT
Civil Twilight 6:28 AM PDT 6:18 PM PDT
Nautical Twilight 5:58 AM PDT 6:48 PM PDT
Astronomical Twilight 5:28 AM PDT 7:17 PM PDT
Moon 7:36 AM PDT 6:36 PM PDT
Length of Visible Light 11h 50m
Length of Day
10h 57m
Tomorrow will be 2m 6s shorter.
New Moon, 1% of the Moon is Illuminated
Today
New Moon
Oct 30
First Quarter
Nov 6
Full
Nov 14
Last Quarter
Nov 22
New

Today's Extremes

State Highs State Lows

Community

WunderPhotos

Upload Photos

1,764,628 photos uploaded!

Nearby

Air Quality

  Air Quality AQ Index Pollutant
Yesterday Good
PM10
Yesterday Good
OZONE
Current Moderate
PM2.5
Current Good
OZONE
Friday Good
PM10
Friday Good
OZONE
Saturday Good
PM10
Saturday Good
OZONE
Sunday Good
PM10
Sunday Good
OZONE
Monday Good
PM10
Monday Good
OZONE
Tuesday Good
PM10
Tuesday Good
OZONE
Wednesday Good
PM10
Wednesday Good
OZONE

Snow Depth

Station Depth Elevation
Ward Mountain 0 in 9200 ft
Diamond Peak 1 in 8000 ft
Big Creek Summit 1 in 8700 ft
Corral Canyon 1 in 8500 ft
Green Mountain 0 in 8000 ft

Earthquake Activity

City Distance Mag. Time & Date
No recent earthquake activity has been reported nearby.
Minimum magnitude displayed is 2.5.

Coastal Water Temperatures

Place Temperature
No Stations Reporting

Nearby Weather Stations